• Join FlightAware (Why Join?)
  • Login
  • US Flag 
12:40AM EST


 

Airport Tracker/Info


-or-


 

Live Flight TrackerFlight Track Log ✈ C-GONN ✈ 09-Apr-2013 ✈ CYVR - CYKA

Flight Track Log - Related Links

Times and Time Zones

All times are in EDT time to prevent confusion due to time zone crossing. See the C-GONN flight status page for this flight to view local times or setup timezone preferences in your user account.

Time Position Orientation Groundspeed Altitude Reporting Facility
EDT Latitude Longitude Course Direction KTS MPH feet Rate Location/Type
09:25PM 49.1667 -123.1833 90° East 110 127 400  Level Vancouver Center
09:26PM 49.1667 -123.1333 90° East 130 150 1,700 1,260 Climbing Vancouver Center
09:27PM 49.1667 -123.0833 90° East 130 150 3,000 1,140 Climbing Vancouver Center
09:28PM 49.1667 -123.0000 90° East 140 161 4,000 1,080 Climbing Vancouver Center
09:29PM 49.2000 -122.9833 18° North 160 184 5,200 1,200 Climbing Vancouver Center
09:30PM 49.2333 -122.9333 44° Northeast 160 184 6,500 1,140 Climbing Vancouver Center
09:31PM 49.2667 -122.9000 33° Northeast 170 196 7,500 960 Climbing Vancouver Center
09:32PM 49.3167 -122.8500 33° Northeast 180 207 8,500 960 Climbing Vancouver Center
09:33PM 49.3500 -122.8000 44° Northeast 190 219 9,500 1,020 Climbing Vancouver Center
09:34PM 49.4000 -122.7500 33° Northeast 190 219 10,600 1,020 Climbing Vancouver Center
09:35PM 49.4500 -122.7167 23° Northeast 190 219 11,600 960 Climbing Vancouver Center
09:36PM 49.5000 -122.6667 33° Northeast 200 230 12,600 840 Climbing Vancouver Center
09:37PM 49.5333 -122.6167 44° Northeast 210 242 13,300 780 Climbing Vancouver Center
09:38PM 49.5833 -122.5667 33° Northeast 210 242 14,200 780 Climbing Vancouver Center
09:39PM 49.6333 -122.5167 33° Northeast 210 242 14,900 360 Climbing Vancouver Center
09:40PM 49.6833 -122.4500 41° Northeast 240 276 15,000  Climbing Vancouver Center
09:41PM 49.7500 -122.3833 33° Northeast 270 311 15,000  Level Vancouver Center
09:42PM 49.8167 -122.3167 33° Northeast 270 311 15,000  Level Vancouver Center
09:43PM 49.8667 -122.2500 41° Northeast 270 311 15,000  Level Vancouver Center
09:44PM 49.9333 -122.1667 39° Northeast 270 311 15,100  Climbing Vancouver Center
09:45PM 50.0000 -122.1167 26° Northeast 280 322 15,100  Level Vancouver Center
09:46PM 50.0667 -122.0333 39° Northeast 280 322 15,100 -60 Level Vancouver Center
09:47PM 50.1333 -121.9833 26° Northeast 280 322 15,000 -60 Descending Vancouver Center
09:48PM 50.1667 -121.9000 58° Northeast 280 322 15,000  Level Vancouver Center
09:49PM 50.2333 -121.8167 39° Northeast 280 322 15,000  Level Vancouver Center
09:50PM 50.3000 -121.7667 26° Northeast 280 322 15,000  Level Vancouver Center
09:51PM 50.3667 -121.6833 39° Northeast 280 322 15,000  Level Vancouver Center
09:52PM 50.4333 -121.6000 39° Northeast 280 322 15,000 -180 Level Vancouver Center
09:53PM 50.4833 -121.5500 32° Northeast 270 311 14,700 -780 Descending Vancouver Center
09:54PM 50.5500 -121.4667 38° Northeast 290 334 13,500 -1,140 Descending Vancouver Center
09:55PM 50.6167 -121.3833 38° Northeast 310 357 12,500 -1,140 Descending Vancouver Center
09:56PM 50.6667 -121.2500 59° Northeast 310 357 11,300 -1,200 Descending Vancouver Center
09:57PM 50.7000 -121.1333 66° East 310 357 10,100 -1,380 Descending Vancouver Center
09:58PM 50.7167 -121.0000 79° East 300 345 8,600 -1,440 Descending Vancouver Center
09:59PM 50.7500 -120.9000 62° Northeast 290 334 7,300 -1,380 Descending Vancouver Center
10:00PM 50.7333 -120.7833 103° East 250 288 5,900 -1,440 Descending Vancouver Center
10:01PM 50.7333 -120.6833 90° East 230 265 4,500 -1,260 Descending Vancouver Center
10:02PM 50.7167 -120.6000 108° East 190 219 3,400 -1,020 Descending Vancouver Center
10:03PM 50.7167 -120.5500 90° East 170 196 2,500 -900 Descending Vancouver Center